Terminal Aerodrome Forecast
Issued by NWS

Home | Current Version | Previous Version | Text Only | Print | Product List | Glossary Off
Versions: 1 2 3 4 5 6 7 8 9 10 11 12 13 14 15 16 17 18

000
FTUS43 KFGF 241500 AAA
TAFBJI
TAF AMD
KBJI 241540Z 2416/2512 VRB03KT 1SM BR OVC003
      TEMPO 2416/2418 2SM BR
     FM241800 04007KT 3SM BR OVC010=

USA.gov is the U.S. government's official web portal to all federal, state and local government web resources and services.